createdAt,value
2018-06-05T00:00:58.506Z,7.60
2018-06-05T00:03:27.463Z,18.23
2018-06-05T00:05:56.380Z,10.43
2018-06-05T00:08:25.666Z,10.13
2018-06-05T00:10:54.858Z,10.27
2018-06-05T00:13:23.932Z,7.77
2018-06-05T00:15:52.836Z,10.40
2018-06-05T00:18:22.012Z,10.40
2018-06-05T00:20:50.783Z,9.10
2018-06-05T00:23:19.860Z,8.60
2018-06-05T00:25:50.578Z,9.70
2018-06-05T00:28:19.625Z,8.17
2018-06-05T00:30:48.773Z,12.17
2018-06-05T00:33:21.020Z,10.20
2018-06-05T00:35:49.882Z,10.30
2018-06-05T00:38:18.825Z,11.80
2018-06-05T00:40:47.814Z,11.93
2018-06-05T00:43:16.646Z,25.27
2018-06-05T00:45:53.156Z,10.70
2018-06-05T00:48:22.138Z,13.83
2018-06-05T00:50:50.925Z,12.17
2018-06-05T00:53:20.126Z,12.90
2018-06-05T00:55:49.205Z,12.57
2018-06-05T00:58:18.136Z,11.33
2018-06-05T01:00:47.152Z,15.40
2018-06-05T01:03:16.289Z,12.60
2018-06-05T01:05:45.302Z,15.23
2018-06-05T01:08:14.764Z,18.03
2018-06-05T01:10:43.808Z,21.57
2018-06-05T01:13:13.081Z,11.40
2018-06-05T01:15:41.973Z,22.50
2018-06-05T01:18:10.945Z,12.90
2018-06-05T01:20:40.114Z,10.00
2018-06-05T01:23:09.219Z,14.50
2018-06-05T01:25:38.391Z,19.37
2018-06-05T01:28:07.796Z,11.20
2018-06-05T01:30:36.694Z,10.30
2018-06-05T01:33:05.577Z,10.10
2018-06-05T01:35:34.463Z,13.77
2018-06-05T01:38:03.833Z,14.53
2018-06-05T01:40:32.859Z,17.90
2018-06-05T01:43:01.796Z,12.10
2018-06-05T01:45:30.712Z,17.97
2018-06-05T01:47:59.703Z,12.57
2018-06-05T01:50:28.654Z,18.47
2018-06-05T01:52:57.897Z,12.20
2018-06-05T01:55:27.083Z,10.50
2018-06-05T01:57:56.053Z,13.33
2018-06-05T02:00:24.825Z,11.20
2018-06-05T02:02:53.714Z,12.00
2018-06-05T02:05:22.566Z,16.50
2018-06-05T02:07:51.593Z,18.83
2018-06-05T02:10:20.732Z,19.20
2018-06-05T02:12:49.583Z,15.83
2018-06-05T02:15:18.611Z,15.00
2018-06-05T02:17:47.614Z,13.37
2018-06-05T02:20:16.598Z,12.53
2018-06-05T02:22:45.484Z,11.70
2018-06-05T02:25:14.484Z,13.40
2018-06-05T02:27:43.350Z,13.97
2018-06-05T02:30:12.139Z,13.40
2018-06-05T02:32:41.044Z,15.93
2018-06-05T02:35:10.048Z,15.63
2018-06-05T02:37:39.548Z,13.50
2018-06-05T02:40:09.392Z,19.40
2018-06-05T02:42:38.658Z,15.60
2018-06-05T02:45:07.694Z,16.10
2018-06-05T02:47:36.584Z,14.37
2018-06-05T02:50:05.773Z,14.03
2018-06-05T02:52:34.976Z,11.60
2018-06-05T02:55:03.993Z,19.13
2018-06-05T02:57:32.799Z,13.30
2018-06-05T03:00:02.331Z,14.60
2018-06-05T03:02:31.575Z,19.07
2018-06-05T03:05:00.491Z,14.43
2018-06-05T03:07:29.740Z,12.43
2018-06-05T03:09:58.857Z,13.53
2018-06-05T03:12:27.893Z,14.33
2018-06-05T03:14:57.013Z,11.10
2018-06-05T03:17:26.062Z,11.90
2018-06-05T03:19:55.149Z,11.60
2018-06-05T03:22:24.108Z,16.43
2018-06-05T03:24:53.031Z,11.00
2018-06-05T03:27:21.898Z,14.20
2018-06-05T03:29:50.989Z,12.60
2018-06-05T03:32:20.139Z,19.23
2018-06-05T03:34:49.405Z,13.40
2018-06-05T03:37:18.467Z,15.43
2018-06-05T03:39:47.711Z,12.50
2018-06-05T03:42:16.610Z,24.33
2018-06-05T03:44:46.086Z,18.53
2018-06-05T03:47:15.052Z,14.97
2018-06-05T03:49:43.910Z,16.90
2018-06-05T03:52:13.040Z,14.90
2018-06-05T03:54:41.955Z,16.33
2018-06-05T03:57:11.005Z,16.67
2018-06-05T03:59:39.971Z,18.33
2018-06-05T04:02:09.260Z,25.03
2018-06-05T04:04:38.670Z,21.97
2018-06-05T04:07:07.934Z,11.90
2018-06-05T04:09:36.960Z,16.57
2018-06-05T04:12:06.206Z,17.73
2018-06-05T04:14:35.374Z,15.93
2018-06-05T04:17:04.237Z,18.47
2018-06-05T04:19:33.188Z,16.73
2018-06-05T04:22:02.255Z,19.83
2018-06-05T04:24:31.494Z,14.10
2018-06-05T04:27:00.353Z,17.43
2018-06-05T04:29:29.327Z,12.50
2018-06-05T04:31:58.360Z,13.07
2018-06-05T04:34:27.467Z,15.57
2018-06-05T04:36:56.890Z,18.73
2018-06-05T04:39:25.861Z,16.37
2018-06-05T04:41:54.631Z,23.23
2018-06-05T04:44:23.952Z,15.30
2018-06-05T04:46:53.484Z,16.33
2018-06-05T04:49:22.528Z,17.60
2018-06-05T04:51:51.512Z,15.93
2018-06-05T04:54:20.637Z,13.50
2018-06-05T04:56:49.640Z,13.77
2018-06-05T04:59:18.740Z,21.40
2018-06-05T05:01:47.993Z,14.07
2018-06-05T05:04:17.429Z,13.30
2018-06-05T05:06:46.314Z,16.40
2018-06-05T05:09:15.551Z,18.33
2018-06-05T05:11:47.498Z,16.13
2018-06-05T05:14:16.833Z,13.77
2018-06-05T05:16:46.034Z,15.80
2018-06-05T05:19:15.011Z,13.30
2018-06-05T05:21:43.926Z,15.90
2018-06-05T05:24:12.994Z,17.30
2018-06-05T05:26:42.101Z,26.00
2018-06-05T05:29:11.128Z,17.97
2018-06-05T05:31:40.025Z,14.90
2018-06-05T05:34:08.884Z,14.37
2018-06-05T05:36:37.791Z,16.23
2018-06-05T05:39:08.245Z,14.80
2018-06-05T05:41:37.423Z,15.40
2018-06-05T05:44:06.393Z,15.00
2018-06-05T05:46:35.317Z,19.07
2018-06-05T05:49:04.285Z,16.13
2018-06-05T05:51:33.404Z,21.70
2018-06-05T05:54:02.832Z,16.37
2018-06-05T05:56:31.946Z,16.63
2018-06-05T05:59:01.024Z,16.37
2018-06-05T06:01:30.012Z,16.93
2018-06-05T06:03:59.261Z,17.20
2018-06-05T06:06:28.387Z,17.03
2018-06-05T06:08:57.378Z,15.97
2018-06-05T06:11:26.389Z,16.83
2018-06-05T06:13:55.351Z,16.20
2018-06-05T06:16:24.877Z,14.07
2018-06-05T06:18:54.307Z,12.50
2018-06-05T06:21:24.274Z,13.40
2018-06-05T06:23:53.107Z,19.40
2018-06-05T06:26:22.004Z,19.10
2018-06-05T06:28:51.261Z,16.47
2018-06-05T06:31:20.657Z,16.37
2018-06-05T06:33:49.560Z,15.00
2018-06-05T06:36:18.640Z,18.47
2018-06-05T06:38:47.582Z,22.80
2018-06-05T06:41:17.246Z,16.67
2018-06-05T06:43:46.286Z,17.17
2018-06-05T06:46:15.211Z,16.53
2018-06-05T06:48:44.431Z,17.77
2018-06-05T06:51:13.464Z,17.67
2018-06-05T06:53:42.491Z,11.43
2018-06-05T06:56:11.704Z,17.13
2018-06-05T06:58:40.592Z,19.00
2018-06-05T07:01:09.567Z,16.83
2018-06-05T07:03:38.614Z,24.93
2018-06-05T07:06:07.498Z,21.00
2018-06-05T07:08:36.478Z,19.20
2018-06-05T07:11:05.534Z,12.17
2018-06-05T07:13:34.409Z,15.43
2018-06-05T07:16:03.603Z,13.53
2018-06-05T07:18:32.783Z,16.27
2018-06-05T07:21:01.619Z,12.80
2018-06-05T07:23:30.750Z,17.17
2018-06-05T07:25:59.679Z,12.83
2018-06-05T07:28:28.672Z,23.37
2018-06-05T07:30:57.860Z,26.17
2018-06-05T07:33:26.777Z,16.40
2018-06-05T07:35:55.898Z,15.57
2018-06-05T07:38:25.169Z,27.47
2018-06-05T07:40:54.210Z,18.60
2018-06-05T07:43:23.471Z,53.23
2018-06-05T07:45:52.401Z,81.50
2018-06-05T07:48:21.242Z,32.63
2018-06-05T07:50:50.239Z,54.17
2018-06-05T07:53:19.752Z,51.90
2018-06-05T07:55:49.259Z,41.17
2018-06-05T07:58:18.449Z,32.53
2018-06-05T08:00:47.698Z,14.93
2018-06-05T08:03:16.703Z,19.40
2018-06-05T08:05:45.565Z,14.17
2018-06-05T08:08:14.644Z,17.43
2018-06-05T08:10:43.670Z,12.83
2018-06-05T08:13:12.608Z,22.70
2018-06-05T08:15:41.433Z,18.90
2018-06-05T08:18:10.201Z,14.17
2018-06-05T08:20:39.393Z,18.60
2018-06-05T08:23:08.539Z,38.53
2018-06-05T08:25:37.329Z,13.93
2018-06-05T08:28:06.202Z,15.03
2018-06-05T08:30:35.339Z,11.87
2018-06-05T08:33:04.440Z,12.03
2018-06-05T08:35:33.403Z,13.40
2018-06-05T08:38:02.432Z,11.20
2018-06-05T08:40:31.463Z,18.50
2018-06-05T08:43:04.026Z,9.60
2018-06-05T08:45:33.892Z,10.27
2018-06-05T08:48:08.729Z,9.33
2018-06-05T08:50:37.713Z,10.90
2018-06-05T08:53:06.879Z,11.50
2018-06-05T08:55:35.662Z,9.57
2018-06-05T08:58:05.462Z,8.77
2018-06-05T09:00:34.497Z,9.50
2018-06-05T09:03:03.946Z,12.70
2018-06-05T09:05:33.171Z,10.47
2018-06-05T09:08:02.277Z,12.20
2018-06-05T09:10:31.279Z,13.17
2018-06-05T09:13:00.486Z,18.13
2018-06-05T09:15:29.929Z,14.43
2018-06-05T09:17:58.845Z,15.47
2018-06-05T09:20:27.971Z,14.83
2018-06-05T09:22:57.134Z,10.60
2018-06-05T09:25:26.061Z,17.37
2018-06-05T09:27:55.154Z,12.47
2018-06-05T09:30:24.639Z,12.50
2018-06-05T09:32:53.568Z,12.20
2018-06-05T09:35:22.600Z,12.77
2018-06-05T09:37:55.100Z,12.63
2018-06-05T09:40:24.371Z,13.13
2018-06-05T09:42:53.765Z,9.57
2018-06-05T09:45:22.539Z,14.47
2018-06-05T09:47:51.805Z,12.40
2018-06-05T09:50:20.706Z,10.53
2018-06-05T09:52:49.749Z,11.30
2018-06-05T09:55:18.801Z,12.63
2018-06-05T09:57:48.234Z,16.83
2018-06-05T10:00:17.242Z,19.93
2018-06-05T10:02:46.570Z,11.93
2018-06-05T10:05:15.603Z,12.67
2018-06-05T10:07:44.699Z,12.50
2018-06-05T10:10:13.708Z,11.30
2018-06-05T10:12:42.765Z,25.50
2018-06-05T10:15:11.822Z,12.97
2018-06-05T10:17:40.959Z,13.70
2018-06-05T10:20:09.827Z,9.40
2018-06-05T10:22:38.971Z,9.43
2018-06-05T10:25:08.154Z,10.63
2018-06-05T10:27:37.068Z,12.10
2018-06-05T10:30:05.964Z,8.30
2018-06-05T10:32:34.787Z,35.53
2018-06-05T10:35:03.542Z,8.13
2018-06-05T10:37:32.627Z,11.90
2018-06-05T10:40:01.723Z,28.10
2018-06-05T10:42:30.662Z,9.97
2018-06-05T10:44:59.487Z,16.60
2018-06-05T10:47:28.322Z,10.57
2018-06-05T10:49:57.089Z,9.60
2018-06-05T10:52:26.167Z,6.93
2018-06-05T10:54:55.151Z,6.77
2018-06-05T10:57:24.300Z,8.67
2018-06-05T10:59:53.204Z,14.43
2018-06-05T11:02:22.136Z,11.47
2018-06-05T11:04:51.270Z,7.00
2018-06-05T11:07:20.277Z,7.70
2018-06-05T11:09:49.210Z,7.20
2018-06-05T11:12:18.512Z,8.10
2018-06-05T11:14:47.317Z,10.60
2018-06-05T11:17:17.405Z,6.03
2018-06-05T11:19:46.467Z,7.73
2018-06-05T11:22:15.851Z,7.87
2018-06-05T11:24:44.888Z,24.17
2018-06-05T11:27:14.350Z,8.60
2018-06-05T11:29:43.160Z,12.10
2018-06-05T11:32:12.634Z,6.07
2018-06-05T11:34:41.471Z,12.03
2018-06-05T11:37:10.315Z,10.53
2018-06-05T11:39:39.251Z,13.03
2018-06-05T11:42:08.071Z,9.37
2018-06-05T11:44:37.391Z,6.07
2018-06-05T11:47:06.629Z,9.13
2018-06-05T11:49:35.489Z,18.83
2018-06-05T11:52:04.544Z,6.27
2018-06-05T11:54:33.631Z,10.80
2018-06-05T11:57:02.516Z,19.27
2018-06-05T11:59:31.755Z,7.53
2018-06-05T12:02:00.866Z,16.27
2018-06-05T12:04:29.814Z,6.60
2018-06-05T12:06:58.857Z,10.87
2018-06-05T12:09:28.231Z,7.27
2018-06-05T12:11:57.379Z,9.60
2018-06-05T12:14:26.371Z,6.70
2018-06-05T12:16:55.464Z,9.70
2018-06-05T12:19:24.410Z,10.00
2018-06-05T12:21:53.555Z,5.27
2018-06-05T12:24:22.511Z,7.33
2018-06-05T12:26:51.587Z,6.53
2018-06-05T12:29:20.392Z,8.83
2018-06-05T12:31:49.239Z,8.37
2018-06-05T12:34:18.183Z,9.80
2018-06-05T12:36:47.282Z,6.53
2018-06-05T12:39:16.249Z,9.53
2018-06-05T12:41:45.466Z,9.90
2018-06-05T12:44:14.368Z,10.47
2018-06-05T12:46:44.278Z,7.80
2018-06-05T12:49:13.127Z,9.70
2018-06-05T12:51:42.438Z,18.57
2018-06-05T12:54:11.706Z,10.90
2018-06-05T12:56:41.117Z,7.70
2018-06-05T12:59:10.201Z,7.10
2018-06-05T13:01:39.322Z,9.40
2018-06-05T13:04:08.286Z,5.73
2018-06-05T13:06:37.242Z,7.40
2018-06-05T13:09:08.097Z,14.83
2018-06-05T13:11:37.062Z,13.13
2018-06-05T13:14:06.314Z,7.27
2018-06-05T13:16:35.222Z,6.30
2018-06-05T13:19:04.287Z,11.27
2018-06-05T13:21:33.296Z,6.70
2018-06-05T13:24:02.966Z,9.03
2018-06-05T13:26:31.985Z,10.50
2018-06-05T13:29:00.866Z,6.57
2018-06-05T13:31:29.841Z,7.63
2018-06-05T13:33:58.773Z,8.30
2018-06-05T13:36:29.643Z,8.10
2018-06-05T13:39:00.040Z,5.37
2018-06-05T13:41:29.967Z,9.77
2018-06-05T13:44:00.160Z,5.90
2018-06-05T13:46:29.509Z,9.90
2018-06-05T13:49:00.215Z,8.23
2018-06-05T13:51:30.415Z,15.63
2018-06-05T13:54:00.179Z,16.50
2018-06-05T13:56:29.362Z,10.50
2018-06-05T13:58:58.357Z,11.60
2018-06-05T14:01:27.695Z,14.80
2018-06-05T14:03:56.703Z,8.80
2018-06-05T14:06:25.681Z,14.20
2018-06-05T14:08:54.568Z,17.57
2018-06-05T14:11:23.453Z,21.07
2018-06-05T14:13:53.434Z,7.33
2018-06-05T14:16:22.631Z,11.10
2018-06-05T14:18:52.078Z,8.27
2018-06-05T14:21:21.098Z,8.17
2018-06-05T14:23:50.117Z,11.80
2018-06-05T14:26:19.442Z,8.73
2018-06-05T14:28:48.763Z,12.47
2018-06-05T14:31:17.839Z,7.40
2018-06-05T14:33:46.688Z,16.90
2018-06-05T14:36:15.625Z,9.07
2018-06-05T14:38:44.488Z,18.47
2018-06-05T14:41:13.471Z,4.97
2018-06-05T14:43:42.684Z,7.40
2018-06-05T14:46:12.218Z,8.53
2018-06-05T14:48:41.691Z,5.57
2018-06-05T14:51:10.711Z,14.73
2018-06-05T14:53:40.019Z,9.77
2018-06-05T14:56:08.914Z,15.40
2018-06-05T14:58:37.764Z,8.10
2018-06-05T15:01:07.270Z,10.90
2018-06-05T15:03:36.318Z,7.07
2018-06-05T15:06:05.379Z,13.20
2018-06-05T15:08:34.487Z,13.90
2018-06-05T15:11:03.433Z,7.10
2018-06-05T15:13:32.547Z,6.60
2018-06-05T15:16:01.612Z,7.20
2018-06-05T15:18:30.494Z,5.97
2018-06-05T15:20:59.833Z,8.70
2018-06-05T15:23:28.749Z,10.70
2018-06-05T15:25:57.847Z,8.53
2018-06-05T15:28:27.232Z,7.93
2018-06-05T15:30:56.453Z,10.17
2018-06-05T15:33:25.514Z,9.10
2018-06-05T15:35:54.571Z,7.93
2018-06-05T15:38:23.621Z,7.13
2018-06-05T15:40:53.891Z,11.60
2018-06-05T15:43:23.038Z,6.50
2018-06-05T15:45:51.876Z,6.30
2018-06-05T15:48:21.128Z,10.73
2018-06-05T15:50:50.302Z,11.73
2018-06-05T15:53:19.239Z,6.80
2018-06-05T15:55:48.108Z,5.17
2018-06-05T15:58:17.915Z,10.73
2018-06-05T16:00:47.221Z,18.23
2018-06-05T16:03:16.924Z,11.50
2018-06-05T16:05:52.265Z,24.73
2018-06-05T16:08:22.074Z,5.07
2018-06-05T16:10:51.643Z,10.00
2018-06-05T16:13:22.570Z,6.90
2018-06-05T16:15:52.856Z,9.20
2018-06-05T16:18:22.040Z,6.37
2018-06-05T16:20:51.350Z,13.40
2018-06-05T16:23:23.185Z,7.10
2018-06-05T16:25:55.082Z,7.27
2018-06-05T16:28:37.039Z,5.27
2018-06-05T16:37:25.789Z,11.60
2018-06-05T16:39:54.920Z,8.40
2018-06-05T16:42:23.906Z,11.40
2018-06-05T16:44:52.896Z,10.57
2018-06-05T16:47:21.821Z,8.53
2018-06-05T16:49:51.216Z,7.30
2018-06-05T16:52:20.196Z,7.17
2018-06-05T16:54:49.131Z,7.37
2018-06-05T16:57:18.260Z,9.53
2018-06-05T16:59:47.234Z,11.17
2018-06-05T17:02:15.909Z,9.07
2018-06-05T17:04:44.651Z,9.80
2018-06-05T17:07:14.149Z,21.73
2018-06-05T17:09:43.362Z,12.37
2018-06-05T17:12:12.519Z,13.20
2018-06-05T17:14:41.283Z,18.90
2018-06-05T17:17:10.211Z,11.60
2018-06-05T17:19:39.239Z,18.70
2018-06-05T17:22:08.195Z,18.70
2018-06-05T17:24:37.204Z,19.07
2018-06-05T17:27:06.300Z,22.57
2018-06-05T17:29:35.200Z,11.27
2018-06-05T17:32:03.916Z,20.57
2018-06-05T17:34:32.762Z,25.20
2018-06-05T17:37:01.526Z,22.80
2018-06-05T17:39:30.869Z,23.13
2018-06-05T17:42:00.042Z,14.93
2018-06-05T17:44:29.442Z,12.57
2018-06-05T17:46:58.285Z,20.73
2018-06-05T17:49:27.661Z,16.10
2018-06-05T17:51:56.847Z,12.63
2018-06-05T17:54:25.638Z,16.40
2018-06-05T17:56:54.369Z,13.63
2018-06-05T17:59:23.523Z,16.53
2018-06-05T18:01:52.674Z,12.43
2018-06-05T18:04:21.679Z,17.90
2018-06-05T18:06:50.595Z,15.00
2018-06-05T18:09:19.523Z,17.30
2018-06-05T18:11:48.637Z,15.50
2018-06-05T18:14:17.758Z,17.73
2018-06-05T18:16:46.722Z,14.27
2018-06-05T18:19:15.794Z,16.27
2018-06-05T18:21:44.712Z,13.87
2018-06-05T18:24:13.785Z,14.40
2018-06-05T18:26:42.721Z,17.73
2018-06-05T18:29:11.869Z,19.47
2018-06-05T18:31:40.820Z,17.83
2018-06-05T18:34:09.821Z,33.90
2018-06-05T18:36:38.621Z,20.10
2018-06-05T18:39:09.058Z,15.83
2018-06-05T18:41:37.949Z,20.43
2018-06-05T18:44:06.958Z,16.37
2018-06-05T18:46:35.868Z,23.30
2018-06-05T18:49:04.810Z,19.10
2018-06-05T18:51:34.735Z,22.83
2018-06-05T18:54:03.683Z,20.60
2018-06-05T18:56:32.586Z,24.37
2018-06-05T18:59:01.784Z,25.60
2018-06-05T19:01:30.969Z,19.17
2018-06-05T19:04:00.019Z,29.23
2018-06-05T19:06:29.053Z,27.90
2018-06-05T19:08:58.230Z,27.17
2018-06-05T19:11:27.150Z,22.10
2018-06-05T19:13:56.260Z,23.63
2018-06-05T19:16:25.438Z,23.93
2018-06-05T19:18:54.374Z,25.47
2018-06-05T19:21:23.403Z,21.33
2018-06-05T19:23:52.569Z,19.97
2018-06-05T19:26:21.500Z,18.60
2018-06-05T19:28:50.383Z,29.03
2018-06-05T19:31:19.907Z,29.30
2018-06-05T19:33:48.681Z,23.57
2018-06-05T19:36:17.520Z,23.23
2018-06-05T19:38:46.590Z,23.43
2018-06-05T19:41:15.505Z,21.67
2018-06-05T19:43:44.451Z,24.33
2018-06-05T19:46:13.549Z,22.60
2018-06-05T19:48:42.496Z,24.03
2018-06-05T19:51:11.457Z,24.83
2018-06-05T19:53:40.574Z,23.60
2018-06-05T19:56:10.030Z,20.53
2018-06-05T19:58:39.120Z,20.80
2018-06-05T20:01:08.307Z,24.00
2018-06-05T20:03:37.395Z,21.80
2018-06-05T20:06:06.441Z,22.83
2018-06-05T20:08:35.537Z,20.40
2018-06-05T20:11:04.426Z,20.70
2018-06-05T20:13:33.400Z,23.07
2018-06-05T20:16:02.328Z,20.37
2018-06-05T20:18:31.299Z,22.43
2018-06-05T20:21:00.203Z,19.70
2018-06-05T20:23:29.192Z,22.30
2018-06-05T20:25:58.083Z,23.47
2018-06-05T20:28:26.900Z,20.03
2018-06-05T20:30:55.861Z,21.13
2018-06-05T20:33:25.250Z,26.40
2018-06-05T20:35:54.511Z,21.27
2018-06-05T20:38:23.309Z,19.00
2018-06-05T20:40:52.925Z,23.23
2018-06-05T20:43:22.032Z,20.63
2018-06-05T20:45:51.295Z,25.63
2018-06-05T20:48:20.367Z,24.33
2018-06-05T20:50:49.330Z,19.10
2018-06-05T20:53:18.402Z,22.83
2018-06-05T20:55:47.470Z,22.13
2018-06-05T20:58:16.295Z,26.57
2018-06-05T21:00:45.297Z,25.00
2018-06-05T21:03:14.395Z,25.60
2018-06-05T21:05:43.516Z,22.23
2018-06-05T21:08:12.380Z,23.87
2018-06-05T21:10:41.181Z,25.73
2018-06-05T21:13:10.049Z,25.20
2018-06-05T21:15:39.109Z,26.10
2018-06-05T21:18:07.903Z,27.70
2018-06-05T21:20:36.843Z,26.53
2018-06-05T21:23:05.874Z,20.13
2018-06-05T21:25:34.877Z,29.93
2018-06-05T21:28:03.798Z,25.77
2018-06-05T21:30:32.777Z,23.70
2018-06-05T21:33:01.831Z,19.90
2018-06-05T21:35:30.751Z,18.33
2018-06-05T21:37:59.720Z,26.30
2018-06-05T21:40:28.647Z,21.43
2018-06-05T21:42:57.712Z,21.43
2018-06-05T21:45:26.627Z,20.93
2018-06-05T21:47:55.525Z,24.73
2018-06-05T21:50:24.370Z,18.30
2018-06-05T21:52:53.139Z,20.93
2018-06-05T21:55:21.906Z,24.80
2018-06-05T21:57:50.688Z,24.63
2018-06-05T22:00:22.979Z,22.90
2018-06-05T22:02:51.761Z,23.57
2018-06-05T22:05:20.632Z,22.63
2018-06-05T22:07:49.772Z,26.30
2018-06-05T22:10:18.473Z,21.53
2018-06-05T22:12:47.271Z,29.83
2018-06-05T22:15:16.019Z,24.77
2018-06-05T22:17:44.940Z,24.40
2018-06-05T22:20:13.958Z,26.83
2018-06-05T22:22:43.005Z,20.23
2018-06-05T22:25:12.026Z,22.80
2018-06-05T22:27:40.815Z,24.43
2018-06-05T22:30:09.630Z,25.77
2018-06-05T22:32:38.437Z,27.30
2018-06-05T22:35:07.668Z,29.03
2018-06-05T22:37:36.700Z,33.43
2018-06-05T22:40:05.661Z,23.47
2018-06-05T22:42:34.590Z,24.43
2018-06-05T22:45:03.385Z,22.90
2018-06-05T22:47:32.634Z,21.33
2018-06-05T22:50:01.442Z,28.70
2018-06-05T22:52:30.350Z,25.80
2018-06-05T22:54:59.238Z,21.40
2018-06-05T22:57:27.986Z,26.33
2018-06-05T22:59:56.907Z,27.23
2018-06-05T23:02:25.970Z,24.27
2018-06-05T23:04:54.685Z,22.47
2018-06-05T23:07:23.455Z,31.37
2018-06-05T23:09:52.369Z,31.83
2018-06-05T23:12:21.113Z,27.60
2018-06-05T23:14:49.968Z,28.37
2018-06-05T23:17:18.917Z,27.47
2018-06-05T23:19:47.921Z,30.20
2018-06-05T23:22:16.750Z,28.40
2018-06-05T23:24:45.657Z,32.47
2018-06-05T23:27:14.576Z,32.63
2018-06-05T23:29:43.503Z,30.67
2018-06-05T23:32:12.261Z,26.60
2018-06-05T23:34:41.181Z,30.07
2018-06-05T23:37:10.002Z,29.07
2018-06-05T23:39:38.855Z,27.33
2018-06-05T23:42:07.826Z,29.83
2018-06-05T23:44:36.744Z,26.47
2018-06-05T23:47:05.644Z,28.43
2018-06-05T23:49:34.525Z,28.17
2018-06-05T23:52:03.338Z,27.13
2018-06-05T23:54:32.157Z,31.00
2018-06-05T23:57:01.170Z,27.83
2018-06-05T23:59:29.910Z,30.40
